sensor_id;sensor_type;location;lat;lon;timestamp;P1;durP1;ratioP1;P2;durP2;ratioP2
16699;SDS011;8466;52.286;21.124;2023-07-31T00:01:27;3.05;;;2.85;;
16699;SDS011;8466;52.286;21.124;2023-07-31T00:03:56;3.78;;;3.20;;
16699;SDS011;8466;52.286;21.124;2023-07-31T00:06:25;3.53;;;2.83;;
16699;SDS011;8466;52.286;21.124;2023-07-31T00:08:54;3.10;;;2.90;;
16699;SDS011;8466;52.286;21.124;2023-07-31T00:11:23;2.72;;;2.53;;
16699;SDS011;8466;52.286;21.124;2023-07-31T00:13:52;3.08;;;2.50;;
16699;SDS011;8466;52.286;21.124;2023-07-31T00:16:21;2.75;;;2.55;;
16699;SDS011;8466;52.286;21.124;2023-07-31T00:18:51;4.32;;;2.42;;
16699;SDS011;8466;52.286;21.124;2023-07-31T00:21:20;3.22;;;2.45;;
16699;SDS011;8466;52.286;21.124;2023-07-31T00:23:49;2.72;;;2.53;;
16699;SDS011;8466;52.286;21.124;2023-07-31T00:26:18;2.42;;;2.28;;
16699;SDS011;8466;52.286;21.124;2023-07-31T00:28:46;2.58;;;2.33;;
16699;SDS011;8466;52.286;21.124;2023-07-31T00:31:15;2.58;;;2.38;;
16699;SDS011;8466;52.286;21.124;2023-07-31T00:33:44;4.15;;;2.80;;
16699;SDS011;8466;52.286;21.124;2023-07-31T00:36:14;2.53;;;2.42;;
16699;SDS011;8466;52.286;21.124;2023-07-31T00:38:44;3.40;;;2.40;;
16699;SDS011;8466;52.286;21.124;2023-07-31T00:41:13;2.60;;;2.50;;
16699;SDS011;8466;52.286;21.124;2023-07-31T00:43:42;3.58;;;2.30;;
16699;SDS011;8466;52.286;21.124;2023-07-31T00:46:10;4.82;;;2.50;;
16699;SDS011;8466;52.286;21.124;2023-07-31T00:48:39;2.28;;;2.08;;
16699;SDS011;8466;52.286;21.124;2023-07-31T00:51:08;3.03;;;2.47;;
16699;SDS011;8466;52.286;21.124;2023-07-31T00:53:39;2.95;;;2.50;;
16699;SDS011;8466;52.286;21.124;2023-07-31T00:56:10;3.20;;;2.53;;
16699;SDS011;8466;52.286;21.124;2023-07-31T00:58:40;2.60;;;2.40;;
16699;SDS011;8466;52.286;21.124;2023-07-31T01:01:09;3.80;;;2.65;;
16699;SDS011;8466;52.286;21.124;2023-07-31T01:03:37;2.83;;;2.30;;
16699;SDS011;8466;52.286;21.124;2023-07-31T01:06:10;2.53;;;2.30;;
16699;SDS011;8466;52.286;21.124;2023-07-31T01:08:48;2.47;;;2.28;;
16699;SDS011;8466;52.286;21.124;2023-07-31T01:11:25;2.60;;;2.40;;
16699;SDS011;8466;52.286;21.124;2023-07-31T01:13:55;3.22;;;2.40;;
16699;SDS011;8466;52.286;21.124;2023-07-31T01:16:25;2.50;;;2.30;;
16699;SDS011;8466;52.286;21.124;2023-07-31T01:18:54;2.70;;;2.50;;
16699;SDS011;8466;52.286;21.124;2023-07-31T01:21:28;3.10;;;2.85;;
16699;SDS011;8466;52.286;21.124;2023-07-31T01:24:22;2.80;;;2.60;;
16699;SDS011;8466;52.286;21.124;2023-07-31T01:26:58;2.58;;;2.38;;
16699;SDS011;8466;52.286;21.124;2023-07-31T01:29:34;2.70;;;2.50;;
16699;SDS011;8466;52.286;21.124;2023-07-31T01:32:06;2.85;;;2.65;;
16699;SDS011;8466;52.286;21.124;2023-07-31T01:34:37;3.90;;;2.72;;
16699;SDS011;8466;52.286;21.124;2023-07-31T01:37:07;3.30;;;3.03;;
16699;SDS011;8466;52.286;21.124;2023-07-31T01:39:36;3.30;;;3.00;;
16699;SDS011;8466;52.286;21.124;2023-07-31T01:42:06;3.35;;;2.88;;
16699;SDS011;8466;52.286;21.124;2023-07-31T01:44:35;2.95;;;2.40;;
16699;SDS011;8466;52.286;21.124;2023-07-31T01:47:04;3.15;;;2.92;;
16699;SDS011;8466;52.286;21.124;2023-07-31T01:49:33;3.20;;;2.90;;
16699;SDS011;8466;52.286;21.124;2023-07-31T01:52:02;3.08;;;2.88;;
16699;SDS011;8466;52.286;21.124;2023-07-31T01:54:32;3.17;;;2.90;;
16699;SDS011;8466;52.286;21.124;2023-07-31T01:57:01;2.80;;;2.60;;
16699;SDS011;8466;52.286;21.124;2023-07-31T01:59:31;3.28;;;3.05;;
16699;SDS011;8466;52.286;21.124;2023-07-31T02:02:00;2.97;;;2.78;;
16699;SDS011;8466;52.286;21.124;2023-07-31T02:04:29;3.17;;;2.97;;
16699;SDS011;8466;52.286;21.124;2023-07-31T02:06:57;2.78;;;2.58;;
16699;SDS011;8466;52.286;21.124;2023-07-31T02:09:26;3.22;;;2.92;;
16699;SDS011;8466;52.286;21.124;2023-07-31T02:11:55;3.10;;;2.90;;
16699;SDS011;8466;52.286;21.124;2023-07-31T02:14:23;3.53;;;3.20;;
16699;SDS011;8466;52.286;21.124;2023-07-31T02:16:54;3.60;;;3.28;;
16699;SDS011;8466;52.286;21.124;2023-07-31T02:19:22;3.10;;;2.90;;
16699;SDS011;8466;52.286;21.124;2023-07-31T02:21:51;6.13;;;3.42;;
16699;SDS011;8466;52.286;21.124;2023-07-31T02:24:20;3.58;;;2.83;;
16699;SDS011;8466;52.286;21.124;2023-07-31T02:26:48;3.17;;;2.97;;
16699;SDS011;8466;52.286;21.124;2023-07-31T02:29:17;3.95;;;3.33;;
16699;SDS011;8466;52.286;21.124;2023-07-31T02:31:46;3.35;;;3.05;;
16699;SDS011;8466;52.286;21.124;2023-07-31T02:34:16;2.97;;;2.78;;
16699;SDS011;8466;52.286;21.124;2023-07-31T02:36:45;4.00;;;3.40;;
16699;SDS011;8466;52.286;21.124;2023-07-31T02:39:14;3.92;;;3.63;;
16699;SDS011;8466;52.286;21.124;2023-07-31T02:41:42;4.00;;;3.53;;
16699;SDS011;8466;52.286;21.124;2023-07-31T02:44:11;4.35;;;3.95;;
16699;SDS011;8466;52.286;21.124;2023-07-31T02:46:41;3.60;;;3.30;;
16699;SDS011;8466;52.286;21.124;2023-07-31T02:49:09;3.92;;;3.72;;
16699;SDS011;8466;52.286;21.124;2023-07-31T02:51:39;3.67;;;3.47;;
16699;SDS011;8466;52.286;21.124;2023-07-31T02:54:08;3.58;;;3.28;;
16699;SDS011;8466;52.286;21.124;2023-07-31T02:56:37;4.47;;;4.13;;
16699;SDS011;8466;52.286;21.124;2023-07-31T02:59:06;3.85;;;3.55;;
16699;SDS011;8466;52.286;21.124;2023-07-31T03:01:35;5.18;;;4.40;;
16699;SDS011;8466;52.286;21.124;2023-07-31T03:04:03;3.95;;;3.65;;
16699;SDS011;8466;52.286;21.124;2023-07-31T03:06:32;4.22;;;3.78;;
16699;SDS011;8466;52.286;21.124;2023-07-31T03:09:03;3.63;;;3.42;;
16699;SDS011;8466;52.286;21.124;2023-07-31T03:11:31;4.78;;;3.83;;
16699;SDS011;8466;52.286;21.124;2023-07-31T03:14:01;3.70;;;3.40;;
16699;SDS011;8466;52.286;21.124;2023-07-31T03:16:29;4.32;;;4.03;;
16699;SDS011;8466;52.286;21.124;2023-07-31T03:18:58;3.80;;;3.53;;
16699;SDS011;8466;52.286;21.124;2023-07-31T03:21:27;4.13;;;3.83;;
16699;SDS011;8466;52.286;21.124;2023-07-31T03:23:56;3.95;;;3.65;;
16699;SDS011;8466;52.286;21.124;2023-07-31T03:26:26;4.30;;;3.90;;
16699;SDS011;8466;52.286;21.124;2023-07-31T03:28:56;4.30;;;3.40;;
16699;SDS011;8466;52.286;21.124;2023-07-31T03:31:25;4.00;;;3.70;;
16699;SDS011;8466;52.286;21.124;2023-07-31T03:33:54;3.60;;;3.38;;
16699;SDS011;8466;52.286;21.124;2023-07-31T03:36:23;6.55;;;3.92;;
16699;SDS011;8466;52.286;21.124;2023-07-31T03:38:51;3.80;;;3.50;;
16699;SDS011;8466;52.286;21.124;2023-07-31T03:41:25;3.83;;;3.20;;
16699;SDS011;8466;52.286;21.124;2023-07-31T03:43:54;4.45;;;3.75;;
16699;SDS011;8466;52.286;21.124;2023-07-31T03:46:23;3.83;;;3.42;;
16699;SDS011;8466;52.286;21.124;2023-07-31T03:48:52;3.95;;;3.60;;
16699;SDS011;8466;52.286;21.124;2023-07-31T03:51:21;4.13;;;3.72;;
16699;SDS011;8466;52.286;21.124;2023-07-31T03:53:50;6.07;;;4.07;;
16699;SDS011;8466;52.286;21.124;2023-07-31T03:56:18;3.45;;;3.13;;
16699;SDS011;8466;52.286;21.124;2023-07-31T03:58:49;3.78;;;3.22;;
16699;SDS011;8466;52.286;21.124;2023-07-31T04:01:19;4.32;;;3.42;;
16699;SDS011;8466;52.286;21.124;2023-07-31T04:03:50;3.70;;;3.40;;
16699;SDS011;8466;52.286;21.124;2023-07-31T04:06:19;4.22;;;3.25;;
16699;SDS011;8466;52.286;21.124;2023-07-31T04:08:47;4.68;;;3.78;;
16699;SDS011;8466;52.286;21.124;2023-07-31T04:11:16;3.63;;;3.22;;
16699;SDS011;8466;52.286;21.124;2023-07-31T04:13:45;4.43;;;3.40;;
16699;SDS011;8466;52.286;21.124;2023-07-31T04:16:15;4.05;;;3.65;;
16699;SDS011;8466;52.286;21.124;2023-07-31T04:18:44;3.45;;;3.08;;
16699;SDS011;8466;52.286;21.124;2023-07-31T04:21:13;4.93;;;3.55;;
16699;SDS011;8466;52.286;21.124;2023-07-31T04:23:41;4.35;;;3.20;;
16699;SDS011;8466;52.286;21.124;2023-07-31T04:26:10;3.22;;;2.95;;
16699;SDS011;8466;52.286;21.124;2023-07-31T04:28:39;4.18;;;3.53;;
16699;SDS011;8466;52.286;21.124;2023-07-31T04:31:08;8.32;;;3.22;;
16699;SDS011;8466;52.286;21.124;2023-07-31T04:33:38;4.55;;;3.10;;
16699;SDS011;8466;52.286;21.124;2023-07-31T04:36:07;4.07;;;2.67;;
16699;SDS011;8466;52.286;21.124;2023-07-31T04:38:35;5.80;;;3.28;;
16699;SDS011;8466;52.286;21.124;2023-07-31T04:41:04;3.15;;;2.92;;
16699;SDS011;8466;52.286;21.124;2023-07-31T04:43:33;3.22;;;2.92;;
16699;SDS011;8466;52.286;21.124;2023-07-31T04:46:02;3.47;;;3.13;;
16699;SDS011;8466;52.286;21.124;2023-07-31T04:48:30;4.00;;;3.25;;
16699;SDS011;8466;52.286;21.124;2023-07-31T04:51:01;6.38;;;2.92;;
16699;SDS011;8466;52.286;21.124;2023-07-31T04:53:30;4.93;;;3.30;;
16699;SDS011;8466;52.286;21.124;2023-07-31T04:55:58;3.55;;;3.17;;
16699;SDS011;8466;52.286;21.124;2023-07-31T04:58:27;5.17;;;3.10;;
16699;SDS011;8466;52.286;21.124;2023-07-31T05:00:56;3.85;;;3.03;;
16699;SDS011;8466;52.286;21.124;2023-07-31T05:03:24;3.10;;;2.80;;
16699;SDS011;8466;52.286;21.124;2023-07-31T05:05:53;5.07;;;3.42;;
16699;SDS011;8466;52.286;21.124;2023-07-31T05:08:24;3.28;;;2.90;;
16699;SDS011;8466;52.286;21.124;2023-07-31T05:10:52;4.65;;;2.95;;
16699;SDS011;8466;52.286;21.124;2023-07-31T05:13:21;3.50;;;2.90;;
16699;SDS011;8466;52.286;21.124;2023-07-31T05:15:50;5.25;;;3.00;;
16699;SDS011;8466;52.286;21.124;2023-07-31T05:18:19;3.50;;;2.78;;
16699;SDS011;8466;52.286;21.124;2023-07-31T05:20:47;3.75;;;3.00;;
16699;SDS011;8466;52.286;21.124;2023-07-31T05:23:16;7.30;;;3.22;;
16699;SDS011;8466;52.286;21.124;2023-07-31T05:25:46;3.80;;;2.83;;
16699;SDS011;8466;52.286;21.124;2023-07-31T05:28:15;4.25;;;2.60;;
16699;SDS011;8466;52.286;21.124;2023-07-31T05:30:44;5.30;;;3.08;;
16699;SDS011;8466;52.286;21.124;2023-07-31T05:33:13;4.00;;;2.80;;
16699;SDS011;8466;52.286;21.124;2023-07-31T05:35:42;5.35;;;2.97;;
16699;SDS011;8466;52.286;21.124;2023-07-31T05:38:11;3.25;;;2.80;;
16699;SDS011;8466;52.286;21.124;2023-07-31T05:40:40;3.00;;;2.65;;
16699;SDS011;8466;52.286;21.124;2023-07-31T05:43:11;4.55;;;2.90;;
16699;SDS011;8466;52.286;21.124;2023-07-31T05:45:41;5.78;;;2.92;;
16699;SDS011;8466;52.286;21.124;2023-07-31T05:48:10;5.93;;;3.47;;
16699;SDS011;8466;52.286;21.124;2023-07-31T05:50:39;4.85;;;3.25;;
16699;SDS011;8466;52.286;21.124;2023-07-31T05:53:08;5.32;;;3.22;;
16699;SDS011;8466;52.286;21.124;2023-07-31T05:55:37;5.82;;;3.30;;
16699;SDS011;8466;52.286;21.124;2023-07-31T05:58:05;4.65;;;2.85;;
16699;SDS011;8466;52.286;21.124;2023-07-31T06:00:36;5.10;;;3.30;;
16699;SDS011;8466;52.286;21.124;2023-07-31T06:03:05;6.95;;;2.97;;
16699;SDS011;8466;52.286;21.124;2023-07-31T06:05:33;4.72;;;3.45;;
16699;SDS011;8466;52.286;21.124;2023-07-31T06:08:02;2.75;;;2.55;;
16699;SDS011;8466;52.286;21.124;2023-07-31T06:10:31;4.20;;;2.75;;
16699;SDS011;8466;52.286;21.124;2023-07-31T06:13:01;3.55;;;2.88;;
16699;SDS011;8466;52.286;21.124;2023-07-31T06:15:30;4.50;;;3.20;;
16699;SDS011;8466;52.286;21.124;2023-07-31T06:18:00;3.70;;;2.70;;
16699;SDS011;8466;52.286;21.124;2023-07-31T06:20:30;3.67;;;2.95;;
16699;SDS011;8466;52.286;21.124;2023-07-31T06:22:58;3.47;;;2.85;;
16699;SDS011;8466;52.286;21.124;2023-07-31T06:25:27;2.92;;;2.65;;
16699;SDS011;8466;52.286;21.124;2023-07-31T06:27:56;3.97;;;2.40;;
16699;SDS011;8466;52.286;21.124;2023-07-31T06:30:24;3.85;;;2.83;;
16699;SDS011;8466;52.286;21.124;2023-07-31T06:32:53;3.75;;;2.53;;
16699;SDS011;8466;52.286;21.124;2023-07-31T06:35:24;3.75;;;2.42;;
16699;SDS011;8466;52.286;21.124;2023-07-31T06:37:52;7.55;;;2.90;;
16699;SDS011;8466;52.286;21.124;2023-07-31T06:40:21;9.40;;;4.03;;
16699;SDS011;8466;52.286;21.124;2023-07-31T06:42:50;12.18;;;4.20;;
16699;SDS011;8466;52.286;21.124;2023-07-31T06:45:19;2.60;;;2.30;;
16699;SDS011;8466;52.286;21.124;2023-07-31T06:47:48;3.45;;;2.92;;
16699;SDS011;8466;52.286;21.124;2023-07-31T06:50:17;5.10;;;2.67;;
16699;SDS011;8466;52.286;21.124;2023-07-31T06:52:47;5.15;;;3.10;;
16699;SDS011;8466;52.286;21.124;2023-07-31T06:55:17;4.05;;;2.70;;
16699;SDS011;8466;52.286;21.124;2023-07-31T06:57:46;2.53;;;2.33;;
16699;SDS011;8466;52.286;21.124;2023-07-31T07:00:16;11.05;;;3.95;;
16699;SDS011;8466;52.286;21.124;2023-07-31T07:02:45;9.93;;;4.30;;
16699;SDS011;8466;52.286;21.124;2023-07-31T07:05:14;7.80;;;3.60;;
16699;SDS011;8466;52.286;21.124;2023-07-31T07:07:44;3.47;;;2.67;;
16699;SDS011;8466;52.286;21.124;2023-07-31T07:10:14;3.75;;;2.30;;
16699;SDS011;8466;52.286;21.124;2023-07-31T07:12:43;3.17;;;2.38;;
16699;SDS011;8466;52.286;21.124;2023-07-31T07:15:12;4.47;;;2.58;;
16699;SDS011;8466;52.286;21.124;2023-07-31T07:17:41;4.15;;;2.22;;
16699;SDS011;8466;52.286;21.124;2023-07-31T07:20:10;4.85;;;2.80;;
16699;SDS011;8466;52.286;21.124;2023-07-31T07:22:38;3.83;;;2.17;;
16699;SDS011;8466;52.286;21.124;2023-07-31T07:25:09;2.92;;;2.63;;
16699;SDS011;8466;52.286;21.124;2023-07-31T07:27:39;2.70;;;2.50;;
16699;SDS011;8466;52.286;21.124;2023-07-31T07:30:09;8.20;;;2.40;;
16699;SDS011;8466;52.286;21.124;2023-07-31T07:32:38;2.95;;;2.42;;
16699;SDS011;8466;52.286;21.124;2023-07-31T07:35:07;3.53;;;2.33;;
16699;SDS011;8466;52.286;21.124;2023-07-31T07:37:36;6.28;;;2.90;;
16699;SDS011;8466;52.286;21.124;2023-07-31T07:40:05;5.28;;;2.60;;
16699;SDS011;8466;52.286;21.124;2023-07-31T07:42:35;2.50;;;2.30;;
16699;SDS011;8466;52.286;21.124;2023-07-31T07:45:05;2.50;;;2.30;;
16699;SDS011;8466;52.286;21.124;2023-07-31T07:47:35;2.30;;;2.00;;
16699;SDS011;8466;52.286;21.124;2023-07-31T07:50:04;2.67;;;2.38;;
16699;SDS011;8466;52.286;21.124;2023-07-31T07:52:35;3.58;;;2.65;;
16699;SDS011;8466;52.286;21.124;2023-07-31T07:55:04;5.68;;;2.50;;
16699;SDS011;8466;52.286;21.124;2023-07-31T07:57:35;3.03;;;2.40;;
16699;SDS011;8466;52.286;21.124;2023-07-31T08:00:06;2.92;;;2.30;;
16699;SDS011;8466;52.286;21.124;2023-07-31T08:02:37;3.28;;;2.33;;
16699;SDS011;8466;52.286;21.124;2023-07-31T08:05:06;2.40;;;2.20;;
16699;SDS011;8466;52.286;21.124;2023-07-31T08:07:36;2.40;;;2.20;;
16699;SDS011;8466;52.286;21.124;2023-07-31T08:10:05;4.43;;;2.15;;
16699;SDS011;8466;52.286;21.124;2023-07-31T08:12:34;3.08;;;2.30;;
16699;SDS011;8466;52.286;21.124;2023-07-31T08:15:05;4.68;;;2.45;;
16699;SDS011;8466;52.286;21.124;2023-07-31T08:17:35;7.32;;;2.17;;
16699;SDS011;8466;52.286;21.124;2023-07-31T08:20:05;2.38;;;2.17;;
16699;SDS011;8466;52.286;21.124;2023-07-31T08:22:34;3.38;;;2.05;;
16699;SDS011;8466;52.286;21.124;2023-07-31T08:25:03;3.28;;;2.63;;
16699;SDS011;8466;52.286;21.124;2023-07-31T08:27:33;3.90;;;2.20;;
16699;SDS011;8466;52.286;21.124;2023-07-31T08:30:03;3.85;;;2.17;;
16699;SDS011;8466;52.286;21.124;2023-07-31T08:32:34;2.78;;;2.28;;
16699;SDS011;8466;52.286;21.124;2023-07-31T08:35:03;4.75;;;2.38;;
16699;SDS011;8466;52.286;21.124;2023-07-31T08:37:32;4.93;;;2.50;;
16699;SDS011;8466;52.286;21.124;2023-07-31T08:40:01;4.18;;;2.50;;
16699;SDS011;8466;52.286;21.124;2023-07-31T08:42:31;4.15;;;2.58;;
16699;SDS011;8466;52.286;21.124;2023-07-31T08:45:00;3.15;;;2.28;;
16699;SDS011;8466;52.286;21.124;2023-07-31T08:47:32;4.22;;;2.00;;
16699;SDS011;8466;52.286;21.124;2023-07-31T08:50:01;4.38;;;1.95;;
16699;SDS011;8466;52.286;21.124;2023-07-31T08:52:30;2.88;;;2.15;;
16699;SDS011;8466;52.286;21.124;2023-07-31T08:54:59;3.45;;;2.28;;
16699;SDS011;8466;52.286;21.124;2023-07-31T08:57:28;2.30;;;2.00;;
16699;SDS011;8466;52.286;21.124;2023-07-31T08:59:57;2.38;;;2.00;;
16699;SDS011;8466;52.286;21.124;2023-07-31T09:02:28;4.15;;;2.35;;
16699;SDS011;8466;52.286;21.124;2023-07-31T09:05:03;3.42;;;2.20;;
16699;SDS011;8466;52.286;21.124;2023-07-31T09:07:33;2.72;;;1.85;;
16699;SDS011;8466;52.286;21.124;2023-07-31T09:10:03;4.38;;;2.33;;
16699;SDS011;8466;52.286;21.124;2023-07-31T09:12:32;4.28;;;2.20;;
16699;SDS011;8466;52.286;21.124;2023-07-31T09:15:03;5.15;;;2.20;;
16699;SDS011;8466;52.286;21.124;2023-07-31T09:17:34;8.18;;;2.67;;
16699;SDS011;8466;52.286;21.124;2023-07-31T09:20:12;6.07;;;2.65;;
16699;SDS011;8466;52.286;21.124;2023-07-31T09:22:43;3.97;;;2.40;;
16699;SDS011;8466;52.286;21.124;2023-07-31T09:25:15;3.42;;;2.40;;
16699;SDS011;8466;52.286;21.124;2023-07-31T09:27:48;3.80;;;2.10;;
16699;SDS011;8466;52.286;21.124;2023-07-31T09:30:18;3.75;;;2.10;;
16699;SDS011;8466;52.286;21.124;2023-07-31T09:32:50;2.97;;;1.90;;
16699;SDS011;8466;52.286;21.124;2023-07-31T09:35:28;3.50;;;2.10;;
16699;SDS011;8466;52.286;21.124;2023-07-31T09:37:58;3.38;;;2.03;;
16699;SDS011;8466;52.286;21.124;2023-07-31T09:40:28;4.18;;;2.25;;
16699;SDS011;8466;52.286;21.124;2023-07-31T09:42:59;10.30;;;3.03;;
16699;SDS011;8466;52.286;21.124;2023-07-31T09:45:28;4.68;;;2.22;;
16699;SDS011;8466;52.286;21.124;2023-07-31T09:48:09;2.15;;;1.60;;
16699;SDS011;8466;52.286;21.124;2023-07-31T09:50:39;4.40;;;1.85;;
16699;SDS011;8466;52.286;21.124;2023-07-31T09:53:10;2.50;;;2.17;;
16699;SDS011;8466;52.286;21.124;2023-07-31T09:55:40;6.55;;;2.00;;
16699;SDS011;8466;52.286;21.124;2023-07-31T09:58:10;4.47;;;2.00;;
16699;SDS011;8466;52.286;21.124;2023-07-31T10:00:40;5.53;;;2.05;;
16699;SDS011;8466;52.286;21.124;2023-07-31T10:03:10;6.35;;;2.20;;
16699;SDS011;8466;52.286;21.124;2023-07-31T10:05:40;2.20;;;1.88;;
16699;SDS011;8466;52.286;21.124;2023-07-31T10:08:12;2.47;;;1.80;;
16699;SDS011;8466;52.286;21.124;2023-07-31T10:10:43;2.90;;;1.80;;
16699;SDS011;8466;52.286;21.124;2023-07-31T10:13:13;2.15;;;1.60;;
16699;SDS011;8466;52.286;21.124;2023-07-31T10:15:43;2.63;;;1.50;;
16699;SDS011;8466;52.286;21.124;2023-07-31T10:18:14;2.88;;;1.95;;
16699;SDS011;8466;52.286;21.124;2023-07-31T10:20:45;2.08;;;1.50;;
16699;SDS011;8466;52.286;21.124;2023-07-31T10:23:14;2.38;;;1.60;;
16699;SDS011;8466;52.286;21.124;2023-07-31T10:25:44;2.58;;;1.63;;
16699;SDS011;8466;52.286;21.124;2023-07-31T10:28:14;2.08;;;1.48;;
16699;SDS011;8466;52.286;21.124;2023-07-31T10:30:43;1.40;;;1.30;;
16699;SDS011;8466;52.286;21.124;2023-07-31T10:33:12;4.07;;;1.90;;
16699;SDS011;8466;52.286;21.124;2023-07-31T10:35:43;4.07;;;2.17;;
16699;SDS011;8466;52.286;21.124;2023-07-31T10:38:12;2.63;;;1.80;;
16699;SDS011;8466;52.286;21.124;2023-07-31T10:40:41;2.40;;;1.55;;
16699;SDS011;8466;52.286;21.124;2023-07-31T10:43:15;1.45;;;1.35;;
16699;SDS011;8466;52.286;21.124;2023-07-31T10:45:57;2.45;;;1.52;;
16699;SDS011;8466;52.286;21.124;2023-07-31T10:48:28;1.88;;;1.48;;
16699;SDS011;8466;52.286;21.124;2023-07-31T10:51:06;1.67;;;1.40;;
16699;SDS011;8466;52.286;21.124;2023-07-31T10:53:37;2.17;;;1.70;;
16699;SDS011;8466;52.286;21.124;2023-07-31T10:56:07;3.05;;;1.90;;
16699;SDS011;8466;52.286;21.124;2023-07-31T10:58:39;3.88;;;1.83;;
16699;SDS011;8466;52.286;21.124;2023-07-31T11:01:11;3.90;;;1.75;;
16699;SDS011;8466;52.286;21.124;2023-07-31T11:03:42;2.05;;;1.65;;
16699;SDS011;8466;52.286;21.124;2023-07-31T11:06:12;3.33;;;1.58;;
16699;SDS011;8466;52.286;21.124;2023-07-31T11:08:44;2.45;;;1.48;;
16699;SDS011;8466;52.286;21.124;2023-07-31T11:11:14;2.45;;;1.55;;
16699;SDS011;8466;52.286;21.124;2023-07-31T11:13:44;2.05;;;1.60;;
16699;SDS011;8466;52.286;21.124;2023-07-31T11:16:16;2.55;;;1.50;;
16699;SDS011;8466;52.286;21.124;2023-07-31T11:18:48;2.88;;;1.70;;
16699;SDS011;8466;52.286;21.124;2023-07-31T11:21:18;1.65;;;1.33;;
16699;SDS011;8466;52.286;21.124;2023-07-31T11:23:48;1.55;;;1.45;;
16699;SDS011;8466;52.286;21.124;2023-07-31T11:26:18;2.28;;;1.48;;
16699;SDS011;8466;52.286;21.124;2023-07-31T11:28:51;2.97;;;1.67;;
16699;SDS011;8466;52.286;21.124;2023-07-31T11:31:20;1.30;;;1.20;;
16699;SDS011;8466;52.286;21.124;2023-07-31T11:33:51;1.67;;;1.15;;
16699;SDS011;8466;52.286;21.124;2023-07-31T11:36:33;3.78;;;1.33;;
16699;SDS011;8466;52.286;21.124;2023-07-31T11:39:04;3.88;;;1.50;;
16699;SDS011;8466;52.286;21.124;2023-07-31T11:41:33;2.05;;;1.45;;
16699;SDS011;8466;52.286;21.124;2023-07-31T11:44:02;7.13;;;1.70;;
16699;SDS011;8466;52.286;21.124;2023-07-31T11:46:51;3.10;;;1.10;;
16699;SDS011;8466;52.286;21.124;2023-07-31T11:49:21;1.60;;;1.40;;
16699;SDS011;8466;52.286;21.124;2023-07-31T11:51:50;1.20;;;1.10;;
16699;SDS011;8466;52.286;21.124;2023-07-31T11:54:19;2.08;;;1.35;;
16699;SDS011;8466;52.286;21.124;2023-07-31T11:56:48;1.55;;;1.30;;
16699;SDS011;8466;52.286;21.124;2023-07-31T11:59:17;1.23;;;1.13;;
16699;SDS011;8466;52.286;21.124;2023-07-31T12:01:46;1.88;;;1.17;;
16699;SDS011;8466;52.286;21.124;2023-07-31T12:04:17;2.35;;;1.30;;
16699;SDS011;8466;52.286;21.124;2023-07-31T12:06:48;3.10;;;1.20;;
16699;SDS011;8466;52.286;21.124;2023-07-31T12:09:17;1.80;;;1.10;;
16699;SDS011;8466;52.286;21.124;2023-07-31T12:11:46;2.45;;;1.27;;
16699;SDS011;8466;52.286;21.124;2023-07-31T12:14:19;1.65;;;1.30;;
16699;SDS011;8466;52.286;21.124;2023-07-31T12:16:53;1.95;;;1.30;;
16699;SDS011;8466;52.286;21.124;2023-07-31T12:19:23;3.15;;;1.77;;
16699;SDS011;8466;52.286;21.124;2023-07-31T12:21:56;2.33;;;1.55;;
16699;SDS011;8466;52.286;21.124;2023-07-31T12:24:26;2.42;;;1.20;;
16699;SDS011;8466;52.286;21.124;2023-07-31T12:26:55;2.42;;;1.20;;
16699;SDS011;8466;52.286;21.124;2023-07-31T12:29:23;2.65;;;1.55;;
16699;SDS011;8466;52.286;21.124;2023-07-31T12:32:18;1.95;;;1.17;;
16699;SDS011;8466;52.286;21.124;2023-07-31T12:34:48;2.17;;;1.40;;
16699;SDS011;8466;52.286;21.124;2023-07-31T12:37:18;3.92;;;1.50;;
16699;SDS011;8466;52.286;21.124;2023-07-31T12:39:48;2.47;;;1.50;;
16699;SDS011;8466;52.286;21.124;2023-07-31T12:42:17;8.10;;;2.03;;
16699;SDS011;8466;52.286;21.124;2023-07-31T12:44:46;8.20;;;2.38;;
16699;SDS011;8466;52.286;21.124;2023-07-31T12:47:15;6.10;;;2.33;;
16699;SDS011;8466;52.286;21.124;2023-07-31T12:49:44;7.60;;;1.95;;
16699;SDS011;8466;52.286;21.124;2023-07-31T12:52:13;3.15;;;1.50;;
16699;SDS011;8466;52.286;21.124;2023-07-31T12:54:43;2.55;;;1.40;;
16699;SDS011;8466;52.286;21.124;2023-07-31T12:57:12;2.97;;;1.27;;
16699;SDS011;8466;52.286;21.124;2023-07-31T12:59:41;3.63;;;1.33;;
16699;SDS011;8466;52.286;21.124;2023-07-31T13:02:09;2.92;;;1.58;;
16699;SDS011;8466;52.286;21.124;2023-07-31T13:04:38;5.15;;;2.50;;
16699;SDS011;8466;52.286;21.124;2023-07-31T13:07:07;4.43;;;1.98;;
16699;SDS011;8466;52.286;21.124;2023-07-31T13:09:36;5.72;;;1.92;;
16699;SDS011;8466;52.286;21.124;2023-07-31T13:12:06;1.63;;;1.50;;
16699;SDS011;8466;52.286;21.124;2023-07-31T13:14:36;1.77;;;1.58;;
16699;SDS011;8466;52.286;21.124;2023-07-31T13:17:05;2.30;;;1.42;;
16699;SDS011;8466;52.286;21.124;2023-07-31T13:19:34;2.55;;;1.60;;
16699;SDS011;8466;52.286;21.124;2023-07-31T13:22:03;2.88;;;1.50;;
16699;SDS011;8466;52.286;21.124;2023-07-31T13:24:32;3.83;;;1.60;;
16699;SDS011;8466;52.286;21.124;2023-07-31T13:27:00;4.45;;;1.85;;
16699;SDS011;8466;52.286;21.124;2023-07-31T13:29:32;2.00;;;1.55;;
16699;SDS011;8466;52.286;21.124;2023-07-31T13:32:01;2.75;;;1.95;;
16699;SDS011;8466;52.286;21.124;2023-07-31T13:34:31;3.65;;;2.22;;
16699;SDS011;8466;52.286;21.124;2023-07-31T13:37:12;4.18;;;1.80;;
16699;SDS011;8466;52.286;21.124;2023-07-31T13:39:41;4.40;;;1.60;;
16699;SDS011;8466;52.286;21.124;2023-07-31T13:42:10;2.10;;;1.55;;
16699;SDS011;8466;52.286;21.124;2023-07-31T13:44:41;2.50;;;1.52;;
16699;SDS011;8466;52.286;21.124;2023-07-31T13:47:10;3.92;;;1.65;;
16699;SDS011;8466;52.286;21.124;2023-07-31T13:49:39;3.05;;;1.30;;
16699;SDS011;8466;52.286;21.124;2023-07-31T13:52:10;2.35;;;1.48;;
16699;SDS011;8466;52.286;21.124;2023-07-31T13:54:39;3.03;;;1.63;;
16699;SDS011;8466;52.286;21.124;2023-07-31T13:57:09;1.92;;;1.50;;
16699;SDS011;8466;52.286;21.124;2023-07-31T13:59:38;3.80;;;1.70;;
16699;SDS011;8466;52.286;21.124;2023-07-31T14:02:08;4.53;;;1.75;;
16699;SDS011;8466;52.286;21.124;2023-07-31T14:04:37;3.95;;;1.33;;
16699;SDS011;8466;52.286;21.124;2023-07-31T14:07:06;4.22;;;1.60;;
16699;SDS011;8466;52.286;21.124;2023-07-31T14:09:35;2.70;;;1.20;;
16699;SDS011;8466;52.286;21.124;2023-07-31T14:12:04;3.58;;;1.50;;
16699;SDS011;8466;52.286;21.124;2023-07-31T14:14:33;5.38;;;1.65;;
16699;SDS011;8466;52.286;21.124;2023-07-31T14:17:02;2.05;;;1.40;;
16699;SDS011;8466;52.286;21.124;2023-07-31T14:19:33;2.63;;;1.40;;
16699;SDS011;8466;52.286;21.124;2023-07-31T14:22:03;2.42;;;1.45;;
16699;SDS011;8466;52.286;21.124;2023-07-31T14:24:37;2.53;;;1.33;;
16699;SDS011;8466;52.286;21.124;2023-07-31T14:27:06;2.90;;;1.75;;
16699;SDS011;8466;52.286;21.124;2023-07-31T14:29:35;3.42;;;1.60;;
16699;SDS011;8466;52.286;21.124;2023-07-31T14:32:04;1.50;;;1.15;;
16699;SDS011;8466;52.286;21.124;2023-07-31T14:34:34;2.92;;;1.50;;
16699;SDS011;8466;52.286;21.124;2023-07-31T14:39:54;2.80;;;1.38;;
16699;SDS011;8466;52.286;21.124;2023-07-31T14:42:23;1.63;;;1.25;;
16699;SDS011;8466;52.286;21.124;2023-07-31T14:44:52;3.13;;;1.42;;
16699;SDS011;8466;52.286;21.124;2023-07-31T14:47:20;3.30;;;1.70;;
16699;SDS011;8466;52.286;21.124;2023-07-31T14:49:51;1.80;;;1.58;;
16699;SDS011;8466;52.286;21.124;2023-07-31T14:52:20;3.75;;;1.40;;
16699;SDS011;8466;52.286;21.124;2023-07-31T14:54:48;4.93;;;1.80;;
16699;SDS011;8466;52.286;21.124;2023-07-31T14:57:17;3.17;;;1.65;;
16699;SDS011;8466;52.286;21.124;2023-07-31T14:59:46;1.73;;;1.60;;
16699;SDS011;8466;52.286;21.124;2023-07-31T15:02:15;3.05;;;1.75;;
16699;SDS011;8466;52.286;21.124;2023-07-31T15:04:47;1.90;;;1.50;;
16699;SDS011;8466;52.286;21.124;2023-07-31T15:07:17;3.97;;;1.52;;